Aérodrome :
LOGIN :

S'inscrire | Disclaimer

   EN    FR    IT 

 










Légende :    VFR   VFR Marginal   IFR   IFR Intensif   IFR Très Intensif
Visi : 
Plafond : 
>= 8 km
>= 3000ft
5 à 8 km
1000 à 3000 ft
1500m à 5 km
500 à 1000 ft
800 à 1500m
200 à 500 ft
< 800m
< 200 ft
Symboles :   Orages  Brouillard  Fortes neiges  Fortes précipitations  Vent > 20 kt
SIGMETs :   Divers  Orages  Givrage  Turbulence  Onde Orograph.  Cendres Volcan.






- Altitude de l'aérodrome : 3 ft
- Code IATA : DHR


EHKD - Den Helder De Kooy

DERNIER METAR :
  • 250255Z AUTO 08007KT 9999 NCD 18/15 Q1018 BLU

METARs EXPIRÉS :
  • 250225Z AUTO 09006KT 9999 NCD 18/15 Q1018 BLU
  • 250155Z AUTO 09006KT 9999 NCD 18/15 Q1018 BLU
  • 250125Z AUTO 09007KT 9999 NCD 18/15 Q1018 BLU
  • 250055Z AUTO 08008KT 9999 NCD 18/15 Q1018 BLU
  • 250025Z AUTO 09008KT 9999 NCD 18/15 Q1018 BLU RMK CB INFO NOT AVBL
  • 242355Z AUTO 09009KT 060V120 9999 NCD 18/15 Q1018 BLU
  • 242325Z AUTO 09009KT 060V120 9999 NCD 19/15 Q1019 BLU
  • 242255Z AUTO 08009KT 050V110 9999 NCD 19/15 Q1019 BLU

TAF TAF EHKD
Valide du 25 à 01h jusqu'au 25 à 13h UTC


250034Z 2501/2513 08008KT CAVOK



MET'MAP, la Météo Aéronautique d'un coup d'oeil ! - Copyright ORBIFLY Décembre 2007 - Disclaimer

ORBIFLY MET'MAP TEAM :

Programmation & Développement : Alexandra Zaïnal
Sur une idée originale de : Baudouin d'Aumeries
Soutien technique & logistique : Manuel Goepfert
Assistance : Marc-Olivier Méhu




SOURCES & CREDITS :

   NOAA